EGUL

RAF Lakenheath

Airport
ICAO code
EGUL
Summary
ICAO Region
EUR
ICAO Territory
Location

Lakenheath, Suffolk, England,

Elevation
32 ft
Coordinates
52° 24' 33" N , 0° 33' 40" E
KCC
Metar
Observation
EGUL 301016Z 20009KT 9999 OVC006 11/11 A2972 RMK AO2A SLP068 $
Station
Lakenheath Royal Air Force Base
Date/Time
2022-09-30 10:16:00
Wind direction
200°
Wind speed
09 kts
Lowest cloud amount
overcast
Temperature
11°C
Dew point
11°C
Humidity
100%
Weather condition
n/a

Description

Royal Air Force Station Lakenheath, commonly abbreviated to RAF Lakenheath, is a military airbase hosting USAF forces near Lakenheath in Suffolk, England.

Climatology

Temperate Marine climate/Oceanic climate (Köppen climate classification Cfb) - Moderately cool summer and comparatively warm winter.

Runways

Designator Length Width Surface Rops
6/24 2743 46 PEM No/No

Airport map

Aerial View

SKYbrary Partners:

Safety knowledge contributed by: